Time;durP1;ratioP1;P1;durP2;ratioP2;P2;SDS_P1;SDS_P2;PMS_P1;PMS_P2;Temp;Humidity;BMP_temperature;BMP_pressure;BME280_temperature;BME280_humidity;BME280_pressure;Samples;Min_cycle;Max_cycle;Signal;HPM_P1;HPM_P2
2021/07/14 00:00:20;;;;;;;28.77;15.25;;;23.20;89.80;;;;;;5031441;28;20144;-67
2021/07/14 00:02:50;;;;;;;35.28;16.80;;;23.20;89.80;;;;;;5026375;28;20095;-67
2021/07/14 00:05:18;;;;;;;34.65;17.27;;;23.10;89.80;;;;;;5020660;28;20045;-67
2021/07/14 00:07:46;;;;;;;39.72;18.83;;;23.10;89.90;;;;;;5016470;28;20037;-67
2021/07/14 00:10:15;;;;;;;27.85;16.92;;;23.10;89.90;;;;;;5016501;28;20034;-66
2021/07/14 00:12:51;;;;;;;35.42;18.67;;;23.10;89.80;;;;;;5016152;28;20037;-67
2021/07/14 00:23:31;;;;;;;38.95;18.27;;;23.10;89.80;;;;;;5015016;28;20064;-67
2021/07/14 00:25:58;;;;;;;29.95;16.65;;;23.00;89.90;;;;;;5030883;28;20413;-67
2021/07/14 00:28:25;;;;;;;31.25;17.13;;;23.00;90.00;;;;;;5013858;28;20501;-67
2021/07/14 00:31:00;;;;;;;33.35;17.67;;;23.00;90.30;;;;;;5021879;28;20053;-67
2021/07/14 00:33:27;;;;;;;32.55;19.23;;;23.00;90.00;;;;;;5025057;28;20034;-67
2021/07/14 00:35:54;;;;;;;37.78;19.35;;;23.00;89.90;;;;;;5029446;28;20025;-67
2021/07/14 00:38:20;;;;;;;37.17;20.17;;;23.00;90.00;;;;;;5013930;28;20038;-67
2021/07/14 00:40:45;;;;;;;42.22;20.83;;;23.00;90.00;;;;;;5028738;28;20034;-67
2021/07/14 00:43:11;;;;;;;35.75;19.33;;;23.00;90.10;;;;;;5014316;28;20030;-67
2021/07/14 00:45:37;;;;;;;34.10;19.90;;;23.00;90.00;;;;;;5011749;28;20386;-67
2021/07/14 00:48:04;;;;;;;42.08;21.17;;;23.00;90.00;;;;;;5022612;28;20486;-67
2021/07/14 00:50:30;;;;;;;36.22;19.67;;;23.00;90.10;;;;;;5023227;28;20055;-67
2021/07/14 00:52:55;;;;;;;37.20;18.00;;;23.00;90.10;;;;;;5012912;28;20022;-67
2021/07/14 00:55:21;;;;;;;30.75;19.02;;;23.00;90.10;;;;;;5026905;28;20400;-67
2021/07/14 00:57:47;;;;;;;35.83;20.60;;;22.90;90.10;;;;;;5012306;28;20025;-67
2021/07/14 01:00:13;;;;;;;40.40;19.20;;;22.90;90.10;;;;;;5010427;28;20579;-67
2021/07/14 01:02:40;;;;;;;40.33;20.25;;;23.00;90.10;;;;;;5046019;28;20025;-67
2021/07/14 01:05:44;;;;;;;37.78;18.92;;;23.00;90.10;;;;;;5036411;28;20108;-67
2021/07/14 01:08:18;;;;;;;41.95;20.25;;;22.90;90.10;;;;;;4939313;28;20054;-67
2021/07/14 01:10:59;;;;;;;44.25;20.52;;;22.90;90.00;;;;;;5014552;28;20138;-67
2021/07/14 01:13:48;;;;;;;38.28;20.95;;;22.90;90.00;;;;;;5016142;28;20064;-67
2021/07/14 01:16:17;;;;;;;37.78;21.73;;;22.90;90.00;;;;;;5017480;28;20060;-67
2021/07/14 01:19:25;;;;;;;46.30;20.25;;;22.90;90.00;;;;;;5038369;28;20477;-67
2021/07/14 01:21:54;;;;;;;39.40;20.30;;;22.90;90.00;;;;;;5031249;28;20397;-67
2021/07/14 01:24:52;;;;;;;35.03;20.98;;;22.90;89.90;;;;;;5027805;28;20042;-67
2021/07/14 01:27:19;;;;;;;38.40;20.52;;;22.90;89.90;;;;;;5012203;28;20054;-68
2021/07/14 01:29:56;;;;;;;39.13;20.95;;;22.90;89.80;;;;;;5017626;28;20032;-67
2021/07/14 01:32:29;;;;;;;38.40;20.23;;;22.90;89.90;;;;;;5028782;28;20033;-67
2021/07/14 01:34:58;;;;;;;53.05;22.50;;;22.90;90.00;;;;;;5033767;28;20473;-67
2021/07/14 01:37:26;;;;;;;45.65;21.92;;;22.90;90.30;;;;;;5021064;28;20382;-67
2021/07/14 01:39:54;;;;;;;41.40;20.02;;;22.90;90.10;;;;;;5018286;28;20033;-67
2021/07/14 01:42:24;;;;;;;48.75;19.88;;;22.90;90.00;;;;;;5030443;28;20030;-67
2021/07/14 01:44:53;;;;;;;42.15;17.98;;;22.80;90.10;;;;;;5027814;28;20057;-67
2021/07/14 01:47:21;;;;;;;45.97;20.65;;;22.80;90.10;;;;;;5022834;28;20053;-67
2021/07/14 01:49:49;;;;;;;41.50;21.83;;;22.80;90.10;;;;;;5011997;28;20148;-67
2021/07/14 01:52:19;;;;;;;49.15;22.17;;;22.80;90.20;;;;;;5011900;28;20034;-67
2021/07/14 01:54:47;;;;;;;44.90;21.10;;;22.90;90.30;;;;;;5018550;28;20025;-67
2021/07/14 01:57:13;;;;;;;50.35;22.10;;;22.80;90.30;;;;;;5011609;28;20044;-67
2021/07/14 01:59:41;;;;;;;46.33;22.33;;;22.80;90.20;;;;;;5020227;28;20025;-67
2021/07/14 02:02:08;;;;;;;43.72;21.73;;;22.80;90.30;;;;;;5016454;28;20040;-67
2021/07/14 02:04:37;;;;;;;50.38;22.67;;;22.90;90.30;;;;;;5030279;28;20029;-67
2021/07/14 02:07:10;;;;;;;43.78;21.50;;;22.90;90.30;;;;;;5024044;28;20052;-67
2021/07/14 02:09:38;;;;;;;43.30;19.98;;;22.80;90.30;;;;;;5032993;28;20116;-67
2021/07/14 02:12:07;;;;;;;49.30;22.55;;;22.90;90.30;;;;;;5015107;28;20040;-67
2021/07/14 02:14:37;;;;;;;51.10;21.92;;;22.80;90.30;;;;;;5020892;28;20033;-67
2021/07/14 02:17:15;;;;;;;47.03;21.27;;;22.80;90.30;;;;;;5031052;28;20125;-68
2021/07/14 02:19:48;;;;;;;58.70;21.63;;;22.80;90.30;;;;;;5021797;28;20030;-68
2021/07/14 02:22:13;;;;;;;51.67;22.17;;;22.80;90.30;;;;;;5027632;28;20072;-68
2021/07/14 02:24:39;;;;;;;40.10;18.95;;;22.80;90.30;;;;;;5024454;28;20065;-68
2021/07/14 02:27:06;;;;;;;46.42;20.83;;;22.80;90.10;;;;;;5028939;28;20037;-68
2021/07/14 02:29:39;;;;;;;47.38;21.90;;;22.80;90.10;;;;;;5020374;28;20136;-68
2021/07/14 02:32:06;;;;;;;51.72;21.90;;;22.80;90.10;;;;;;5016114;28;20026;-68
2021/07/14 02:34:33;;;;;;;43.42;20.20;;;22.80;90.10;;;;;;5015779;28;20045;-68
2021/07/14 02:37:02;;;;;;;43.63;20.95;;;22.80;90.20;;;;;;5026131;28;20036;-68
2021/07/14 02:39:28;;;;;;;46.60;20.48;;;22.80;90.20;;;;;;5019142;28;20025;-68
2021/07/14 02:42:05;;;;;;;46.88;22.77;;;22.80;90.20;;;;;;5024075;28;20102;-68
2021/07/14 02:44:39;;;;;;;36.45;18.95;;;22.70;90.20;;;;;;5015824;28;20095;-68
2021/07/14 02:47:05;;;;;;;;;;;22.70;90.10;;;;;;5015367;28;20044;-68
2021/07/14 02:49:32;;;;;;;45.70;20.50;;;22.70;89.70;;;;;;5015168;28;19913;-68
2021/07/14 02:52:01;;;;;;;44.97;22.25;;;22.70;89.70;;;;;;5015029;28;20034;-68
2021/07/14 02:54:28;;;;;;;40.72;22.23;;;22.70;89.70;;;;;;5014065;28;20037;-68
2021/07/14 02:57:01;;;;;;;48.95;21.17;;;22.70;90.00;;;;;;5016296;28;20026;-68
2021/07/14 02:59:28;;;;;;;;;;;22.60;89.90;;;;;;5019872;28;20489;-68
2021/07/14 03:01:55;;;;;;;35.08;18.52;;;22.60;89.10;;;;;;5020385;28;19909;-68
2021/07/14 03:04:25;;;;;;;30.58;19.08;;;22.60;89.00;;;;;;5021062;28;20056;-68
2021/07/14 03:06:52;;;;;;;34.33;17.40;;;22.60;89.50;;;;;;5016220;28;20045;-68
2021/07/14 03:09:20;;;;;;;33.83;18.98;;;22.60;89.40;;;;;;5029068;28;20130;-68
2021/07/14 03:11:46;;;;;;;31.90;16.30;;;22.60;89.40;;;;;;5024227;28;20045;-68
2021/07/14 03:14:14;;;;;;;37.20;17.15;;;22.60;89.00;;;;;;5014893;28;20145;-68
2021/07/14 03:16:40;;;;;;;29.13;17.20;;;22.60;89.40;;;;;;5026991;28;20187;-68
2021/07/14 03:19:07;;;;;;;31.95;17.10;;;22.60;89.50;;;;;;5015319;28;20374;-67
2021/07/14 03:21:35;;;;;;;33.38;17.40;;;22.60;89.50;;;;;;5025710;28;20489;-67
2021/07/14 03:24:05;;;;;;;32.28;17.55;;;22.60;89.80;;;;;;5016065;28;20065;-67
2021/07/14 03:26:31;;;;;;;28.38;16.65;;;22.60;89.80;;;;;;5014777;28;20061;-67
2021/07/14 03:28:58;;;;;;;27.13;16.50;;;22.60;89.70;;;;;;5013903;28;20029;-67
2021/07/14 03:31:23;;;;;;;29.77;16.48;;;22.60;89.90;;;;;;5023332;28;20036;-67
2021/07/14 03:33:50;;;;;;;29.10;16.75;;;22.60;89.70;;;;;;5028080;28;20013;-67
2021/07/14 03:36:17;;;;;;;32.45;16.58;;;22.60;89.80;;;;;;5017378;28;20446;-67
2021/07/14 03:38:49;;;;;;;25.73;15.95;;;22.50;89.80;;;;;;5014290;28;20113;-69
2021/07/14 03:41:15;;;;;;;29.90;16.33;;;22.60;89.90;;;;;;5021657;28;20100;-68
2021/07/14 03:43:42;;;;;;;26.60;15.85;;;22.60;89.90;;;;;;5012159;28;20462;-68
2021/07/14 03:46:09;;;;;;;25.75;15.75;;;22.60;90.00;;;;;;5014135;28;20045;-68
2021/07/14 03:48:36;;;;;;;28.00;16.25;;;22.60;90.00;;;;;;5015475;28;20084;-68
2021/07/14 03:51:03;;;;;;;35.50;15.52;;;22.60;90.00;;;;;;5017132;28;20142;-68
2021/07/14 03:53:29;;;;;;;26.83;16.35;;;22.60;90.00;;;;;;5021390;28;20042;-68
2021/07/14 03:55:55;;;;;;;28.88;16.23;;;22.60;90.00;;;;;;5014553;28;20105;-68
2021/07/14 03:58:22;;;;;;;32.42;15.75;;;22.60;90.00;;;;;;5017752;28;20371;-68
2021/07/14 04:00:49;;;;;;;30.90;16.20;;;22.60;90.00;;;;;;5015036;28;20021;-68
2021/07/14 04:03:21;;;;;;;29.95;16.25;;;22.60;90.00;;;;;;5016716;28;20026;-68
2021/07/14 04:05:55;;;;;;;29.90;16.48;;;22.60;90.10;;;;;;5020273;28;20041;-68
2021/07/14 04:08:24;;;;;;;26.80;16.50;;;22.60;90.10;;;;;;5015161;28;20087;-68
2021/07/14 04:10:50;;;;;;;27.42;15.13;;;22.60;90.10;;;;;;5017076;28;20048;-68
2021/07/14 04:13:15;;;;;;;30.13;15.68;;;22.60;90.10;;;;;;5020714;28;20037;-68
2021/07/14 04:15:41;;;;;;;27.40;15.02;;;22.60;90.10;;;;;;5013542;28;20438;-68
2021/07/14 04:18:08;;;;;;;29.65;15.45;;;22.60;90.20;;;;;;5013322;28;20033;-68
2021/07/14 04:20:34;;;;;;;30.38;16.05;;;22.60;90.20;;;;;;5017793;28;20141;-68
2021/07/14 04:23:01;;;;;;;31.45;15.68;;;22.60;90.20;;;;;;5014081;28;20457;-68
2021/07/14 04:25:27;;;;;;;42.67;15.45;;;22.60;90.20;;;;;;5015256;28;20038;-68
2021/07/14 04:27:53;;;;;;;35.53;15.93;;;22.60;90.30;;;;;;5014999;28;20113;-68
2021/07/14 04:30:19;;;;;;;25.25;15.27;;;22.60;90.20;;;;;;5015562;28;20405;-68
2021/07/14 04:32:44;;;;;;;27.95;16.42;;;22.60;90.20;;;;;;5017822;28;20026;-68
2021/07/14 04:35:10;;;;;;;29.77;17.25;;;22.70;90.30;;;;;;5013998;28;20025;-68
2021/07/14 04:37:36;;;;;;;26.17;16.52;;;22.60;90.50;;;;;;5012786;28;20034;-69
2021/07/14 04:40:06;;;;;;;30.60;15.82;;;22.60;90.20;;;;;;5015006;28;20076;-69
2021/07/14 04:42:32;;;;;;;28.88;16.50;;;22.60;90.40;;;;;;5022508;28;20048;-69
2021/07/14 04:44:57;;;;;;;27.33;15.75;;;22.60;90.20;;;;;;5019272;28;20025;-72
2021/07/14 04:47:24;;;;;;;30.88;16.05;;;22.60;90.20;;;;;;5025662;28;20034;-70
2021/07/14 04:49:52;;;;;;;21.63;14.85;;;22.60;90.20;;;;;;5014480;28;20417;-68
2021/07/14 04:52:18;;;;;;;27.85;14.02;;;22.60;90.20;;;;;;5014603;28;20034;-69
2021/07/14 04:54:44;;;;;;;23.65;15.00;;;22.60;90.10;;;;;;5018089;28;20022;-68
2021/07/14 04:57:10;;;;;;;21.17;14.27;;;22.60;90.10;;;;;;5017164;28;20561;-69
2021/07/14 04:59:36;;;;;;;22.48;14.52;;;22.60;90.20;;;;;;5024746;28;20385;-69
2021/07/14 05:02:06;;;;;;;22.70;12.60;;;22.60;90.20;;;;;;5014627;28;20029;-69
2021/07/14 05:04:32;;;;;;;22.60;12.85;;;22.60;90.20;;;;;;5012931;28;20049;-69
2021/07/14 05:06:58;;;;;;;20.40;12.38;;;22.70;90.20;;;;;;5012741;28;20121;-69
2021/07/14 05:09:24;;;;;;;21.98;12.10;;;22.60;90.20;;;;;;5034172;28;20025;-69
2021/07/14 05:11:50;;;;;;;23.50;12.23;;;22.60;90.20;;;;;;5033934;28;20486;-69
2021/07/14 05:14:16;;;;;;;16.23;10.93;;;22.60;90.10;;;;;;5012420;28;20056;-69
2021/07/14 05:16:41;;;;;;;21.42;11.70;;;22.70;90.10;;;;;;5012732;28;20101;-68
2021/07/14 05:19:08;;;;;;;22.63;11.13;;;22.70;90.10;;;;;;5011872;28;20034;-69
2021/07/14 05:21:34;;;;;;;20.95;10.52;;;22.70;90.10;;;;;;5011817;28;20535;-69
2021/07/14 05:23:59;;;;;;;24.65;11.30;;;22.60;90.00;;;;;;5014530;28;20030;-69
2021/07/14 05:26:25;;;;;;;23.13;11.15;;;22.70;90.00;;;;;;5023153;28;20034;-69
2021/07/14 05:28:51;;;;;;;18.13;10.75;;;22.70;89.90;;;;;;5012743;28;20459;-71
2021/07/14 05:31:17;;;;;;;17.00;9.00;;;22.70;89.90;;;;;;5013032;28;20466;-75
2021/07/14 05:33:43;;;;;;;11.93;8.00;;;22.60;89.50;;;;;;5013474;28;20112;-74
2021/07/14 05:36:11;;;;;;;15.80;8.90;;;22.60;89.00;;;;;;5012937;28;20460;-75
2021/07/14 05:38:38;;;;;;;12.35;7.53;;;22.60;88.80;;;;;;5014591;28;20033;-75
2021/07/14 05:41:03;;;;;;;11.43;6.57;;;22.60;88.50;;;;;;5018337;28;20561;-74
2021/07/14 05:43:29;;;;;;;20.77;8.52;;;22.60;88.20;;;;;;5015042;28;20144;-74
2021/07/14 05:45:55;;;;;;;18.83;9.57;;;22.70;88.30;;;;;;5011702;28;20034;-74
2021/07/14 05:48:21;;;;;;;11.35;7.75;;;22.60;88.00;;;;;;5012279;28;20026;-74
2021/07/14 05:50:47;;;;;;;18.00;8.60;;;22.70;88.00;;;;;;5011377;28;20026;-74
2021/07/14 05:53:13;;;;;;;14.88;7.97;;;22.70;88.00;;;;;;5017011;28;20105;-74
2021/07/14 05:55:39;;;;;;;13.23;8.07;;;22.70;88.00;;;;;;5019488;28;20381;-74
2021/07/14 05:58:05;;;;;;;15.98;8.07;;;22.70;88.20;;;;;;5016463;28;20117;-74
2021/07/14 06:00:31;;;;;;;16.90;9.75;;;22.70;88.50;;;;;;5016790;28;20148;-74
2021/07/14 06:02:57;;;;;;;12.70;7.50;;;22.70;88.70;;;;;;5015946;28;20037;-75
2021/07/14 06:05:23;;;;;;;14.80;8.95;;;22.70;88.20;;;;;;5014455;28;20038;-74
2021/07/14 06:07:49;;;;;;;13.00;7.70;;;22.70;88.00;;;;;;5020087;28;20049;-74
2021/07/14 06:10:14;;;;;;;14.07;7.88;;;22.70;88.00;;;;;;5043250;28;20526;-74
2021/07/14 06:12:40;;;;;;;18.38;8.50;;;22.70;88.00;;;;;;5021276;28;20040;-74
2021/07/14 06:15:06;;;;;;;14.70;8.77;;;22.70;87.80;;;;;;5034921;28;20103;-74
2021/07/14 06:17:32;;;;;;;11.75;7.70;;;22.70;88.00;;;;;;5015557;28;20081;-74
2021/07/14 06:19:58;;;;;;;13.38;8.40;;;22.70;88.10;;;;;;5014921;28;20061;-74
2021/07/14 06:22:24;;;;;;;20.63;8.75;;;22.70;88.30;;;;;;5028483;28;20033;-74
2021/07/14 06:24:50;;;;;;;29.83;9.70;;;22.80;88.20;;;;;;5015322;28;20057;-74
2021/07/14 06:27:16;;;;;;;24.08;8.20;;;22.70;87.90;;;;;;5015016;28;20485;-74
2021/07/14 06:29:41;;;;;;;14.82;7.93;;;22.70;88.20;;;;;;5018473;28;20029;-75
2021/07/14 06:32:07;;;;;;;13.10;7.38;;;22.80;87.80;;;;;;5016438;28;20044;-74
2021/07/14 06:34:33;;;;;;;17.77;7.95;;;22.80;88.00;;;;;;5023453;28;20033;-74
2021/07/14 06:36:58;;;;;;;13.32;6.22;;;22.80;87.90;;;;;;5019435;28;20454;-74
2021/07/14 06:39:24;;;;;;;14.18;6.97;;;22.80;87.80;;;;;;5016220;28;20342;-75
2021/07/14 06:41:50;;;;;;;20.17;8.13;;;22.70;87.70;;;;;;5022777;28;20025;-74
2021/07/14 06:44:19;;;;;;;17.63;8.38;;;22.80;87.90;;;;;;5022942;28;20037;-74
2021/07/14 06:46:44;;;;;;;17.98;8.95;;;22.80;88.10;;;;;;5016970;28;20097;-75
2021/07/14 06:49:10;;;;;;;11.43;6.90;;;22.80;88.00;;;;;;5021863;28;20017;-74
2021/07/14 06:51:36;;;;;;;14.40;7.75;;;22.80;87.90;;;;;;5021201;28;20033;-74
2021/07/14 06:54:04;;;;;;;18.88;8.38;;;22.80;88.00;;;;;;5016076;28;20021;-74
2021/07/14 06:56:30;;;;;;;20.83;8.80;;;22.80;88.20;;;;;;5022565;28;20180;-74
2021/07/14 06:58:59;;;;;;;14.30;9.55;;;22.90;88.10;;;;;;5030526;28;20104;-74
2021/07/14 07:01:24;;;;;;;14.40;7.50;;;22.80;88.00;;;;;;5032470;28;20028;-74
2021/07/14 07:03:50;;;;;;;13.77;8.55;;;22.90;88.10;;;;;;5016072;28;20397;-74
2021/07/14 07:06:16;;;;;;;16.70;9.07;;;22.80;88.00;;;;;;5023120;28;20037;-74
2021/07/14 07:08:41;;;;;;;19.77;8.40;;;22.80;88.00;;;;;;5020172;28;20032;-74
2021/07/14 07:11:07;;;;;;;13.98;8.00;;;22.90;87.80;;;;;;5018337;28;20044;-74
2021/07/14 07:13:33;;;;;;;18.35;9.80;;;22.90;87.70;;;;;;5025755;28;20022;-74
2021/07/14 07:16:01;;;;;;;15.38;10.23;;;22.90;88.00;;;;;;5017826;28;20172;-74
2021/07/14 07:18:27;;;;;;;15.77;8.27;;;22.90;88.30;;;;;;5016243;28;20367;-74
2021/07/14 07:20:54;;;;;;;18.45;10.00;;;22.90;88.30;;;;;;5013503;28;20101;-74
2021/07/14 07:23:20;;;;;;;14.65;9.23;;;22.90;88.50;;;;;;5019128;28;20029;-74
2021/07/14 07:25:46;;;;;;;12.55;7.85;;;22.90;88.50;;;;;;5017500;28;20034;-73
2021/07/14 07:28:18;;;;;;;19.25;10.65;;;23.00;88.20;;;;;;5027323;28;20076;-73
2021/07/14 07:30:43;;;;;;;18.52;9.50;;;23.00;88.40;;;;;;5022589;28;20034;-70
2021/07/14 07:33:09;;;;;;;16.10;10.20;;;23.00;88.50;;;;;;5018581;28;20033;-70
2021/07/14 07:35:35;;;;;;;15.23;11.25;;;23.00;88.40;;;;;;5021656;28;20022;-70
2021/07/14 07:38:01;;;;;;;16.48;10.10;;;23.00;88.70;;;;;;5024533;28;20116;-69
2021/07/14 07:40:28;;;;;;;17.55;10.70;;;23.00;88.80;;;;;;5018069;28;20084;-67
2021/07/14 07:42:54;;;;;;;16.42;10.85;;;23.00;89.10;;;;;;5024057;28;20061;-69
2021/07/14 07:45:20;;;;;;;20.58;11.50;;;23.00;89.10;;;;;;5020231;28;20037;-68
2021/07/14 07:47:48;;;;;;;16.70;9.90;;;23.00;89.40;;;;;;5016608;28;20041;-69
2021/07/14 07:50:14;;;;;;;19.70;11.88;;;23.10;89.30;;;;;;5021646;28;20037;-68
2021/07/14 07:52:39;;;;;;;16.92;11.43;;;23.10;89.80;;;;;;5016829;28;20026;-68
2021/07/14 07:55:10;;;;;;;16.17;11.63;;;23.10;90.00;;;;;;5019478;28;20075;-68
2021/07/14 07:57:39;;;;;;;19.02;10.85;;;23.10;90.10;;;;;;5025024;28;20037;-68
2021/07/14 08:00:22;;;;;;;15.40;11.27;;;23.20;90.10;;;;;;5017444;28;20122;-68
2021/07/14 08:02:49;;;;;;;30.35;12.13;;;23.10;90.10;;;;;;5023031;28;20076;-68
2021/07/14 08:05:15;;;;;;;17.05;11.07;;;23.20;90.10;;;;;;5022647;28;20033;-68
2021/07/14 08:07:41;;;;;;;21.33;9.93;;;23.10;90.20;;;;;;5016252;28;21200;-68
2021/07/14 08:10:08;;;;;;;16.55;10.70;;;23.20;90.30;;;;;;5022655;28;20484;-68
2021/07/14 08:12:34;;;;;;;15.45;9.98;;;23.20;90.30;;;;;;5021620;28;20033;-68
2021/07/14 08:14:59;;;;;;;17.73;10.70;;;23.30;90.60;;;;;;5023212;28;20041;-69
2021/07/14 08:17:25;;;;;;;18.80;10.77;;;23.20;90.20;;;;;;5021344;28;20054;-68
2021/07/14 08:19:52;;;;;;;18.98;11.48;;;23.30;90.20;;;;;;5023070;28;20022;-69
2021/07/14 08:22:17;;;;;;;17.05;9.60;;;23.30;90.20;;;;;;5023863;28;20559;-68
2021/07/14 08:24:43;;;;;;;13.88;9.02;;;23.30;90.10;;;;;;5019902;28;20136;-68
2021/07/14 08:27:10;;;;;;;18.73;10.77;;;23.40;90.10;;;;;;5021585;28;20045;-69
2021/07/14 08:29:37;;;;;;;23.90;11.10;;;23.40;90.10;;;;;;5019322;28;20108;-69
2021/07/14 08:32:02;;;;;;;20.45;12.13;;;23.40;90.20;;;;;;5020912;28;20033;-69
2021/07/14 08:34:28;;;;;;;20.60;10.68;;;23.50;90.10;;;;;;5020702;28;20673;-68
2021/07/14 08:36:54;;;;;;;22.70;11.43;;;23.50;89.90;;;;;;5016505;28;20374;-69
2021/07/14 08:39:19;;;;;;;23.65;11.05;;;23.50;90.00;;;;;;5022203;28;20033;-68
2021/07/14 08:41:45;;;;;;;22.17;11.23;;;23.50;89.90;;;;;;5025243;28;20081;-68
2021/07/14 08:44:14;;;;;;;19.02;10.13;;;23.50;89.90;;;;;;5019857;28;20100;-69
2021/07/14 08:46:40;;;;;;;16.75;10.30;;;23.50;89.80;;;;;;5018975;28;20576;-68
2021/07/14 08:49:06;;;;;;;21.23;11.05;;;23.60;89.80;;;;;;5017737;28;20060;-69
2021/07/14 08:51:38;;;;;;;16.58;10.13;;;23.50;89.70;;;;;;5023398;28;20060;-69
2021/07/14 08:54:04;;;;;;;19.63;11.43;;;23.50;89.70;;;;;;5022006;28;20558;-68
2021/07/14 08:56:30;;;;;;;17.58;9.95;;;23.60;89.80;;;;;;5021689;28;20060;-69
2021/07/14 08:58:56;;;;;;;18.75;8.95;;;23.60;89.60;;;;;;5025019;28;20033;-68
2021/07/14 09:01:22;;;;;;;19.90;10.35;;;23.60;89.50;;;;;;5026413;28;20301;-69
2021/07/14 09:03:50;;;;;;;14.65;9.75;;;23.60;89.80;;;;;;5027164;28;20536;-69
2021/07/14 09:06:16;;;;;;;20.27;11.30;;;23.70;89.80;;;;;;5019874;28;20068;-69
2021/07/14 09:08:42;;;;;;;17.58;9.98;;;23.70;89.70;;;;;;5023579;28;20079;-68
2021/07/14 09:11:07;;;;;;;14.88;9.73;;;23.70;89.60;;;;;;5020119;28;20026;-69
2021/07/14 09:13:35;;;;;;;15.50;9.65;;;23.60;89.60;;;;;;5021724;28;20080;-69
2021/07/14 09:16:01;;;;;;;16.45;9.70;;;23.70;90.00;;;;;;5021951;28;20038;-68
2021/07/14 09:18:29;;;;;;;15.90;8.18;;;23.70;89.70;;;;;;5025080;28;20033;-68
2021/07/14 09:20:55;;;;;;;16.52;8.80;;;23.70;89.40;;;;;;5020965;28;20101;-69
2021/07/14 09:23:27;;;;;;;19.73;9.75;;;23.80;89.90;;;;;;5019997;28;20037;-72
2021/07/14 09:25:56;;;;;;;24.92;10.07;;;23.80;90.30;;;;;;5023612;28;20104;-72
2021/07/14 09:28:26;;;;;;;19.65;11.65;;;23.80;90.00;;;;;;5018719;28;20030;-72
2021/07/14 09:31:00;;;;;;;20.70;10.10;;;23.90;90.00;;;;;;5023745;28;20026;-72
2021/07/14 09:33:26;;;;;;;18.63;10.68;;;23.90;89.70;;;;;;5021310;28;20029;-71
2021/07/14 09:35:53;;;;;;;21.98;9.98;;;23.90;89.50;;;;;;5021060;28;20022;-71
2021/07/14 09:38:22;;;;;;;17.73;10.18;;;23.90;89.40;;;;;;5020377;28;20044;-72
2021/07/14 09:41:00;;;;;;;19.08;8.93;;;23.90;89.50;;;;;;5014462;28;20029;-71
2021/07/14 09:43:28;;;;;;;17.35;10.23;;;24.00;89.20;;;;;;5017659;28;20547;-71
2021/07/14 09:46:05;;;;;;;32.63;11.10;;;24.00;89.10;;;;;;5016432;28;20037;-71
2021/07/14 09:48:35;;;;;;;17.90;9.60;;;24.00;89.50;;;;;;5020114;28;20029;-72
2021/07/14 09:51:09;;;;;;;18.45;9.20;;;24.00;89.50;;;;;;5017057;28;20346;-72
2021/07/14 09:53:37;;;;;;;18.17;8.60;;;24.00;89.90;;;;;;5016869;28;20030;-72
2021/07/14 09:56:14;;;;;;;20.90;9.32;;;24.00;89.80;;;;;;5013316;28;20030;-71
2021/07/14 09:58:40;;;;;;;16.27;9.15;;;24.10;89.50;;;;;;5012745;28;20088;-72
2021/07/14 10:01:10;;;;;;;21.15;10.60;;;24.10;89.50;;;;;;5013482;28;20029;-72
2021/07/14 10:03:38;;;;;;;17.10;10.73;;;24.10;89.70;;;;;;5011823;28;20034;-71
2021/07/14 10:06:12;;;;;;;20.92;10.35;;;24.20;89.30;;;;;;5016348;28;20081;-71
2021/07/14 10:08:42;;;;;;;18.30;11.23;;;24.30;89.70;;;;;;5025366;28;20065;-72
2021/07/14 10:11:14;;;;;;;19.83;9.63;;;24.30;89.40;;;;;;5025392;28;20022;-72
2021/07/14 10:13:51;;;;;;;20.15;10.25;;;24.30;89.80;;;;;;5020970;28;20096;-71
2021/07/14 10:16:17;;;;;;;13.82;7.63;;;24.40;89.60;;;;;;5021769;28;20440;-72
2021/07/14 10:18:56;;;;;;;14.52;7.97;;;24.40;89.50;;;;;;5016176;28;20086;-74
2021/07/14 10:21:22;;;;;;;20.90;10.38;;;24.50;89.10;;;;;;5014323;28;20021;-73
2021/07/14 10:23:49;;;;;;;26.52;9.07;;;24.50;89.00;;;;;;5011353;28;20030;-73
2021/07/14 10:26:16;;;;;;;34.08;11.00;;;24.50;88.60;;;;;;5012543;28;20442;-73
2021/07/14 10:28:44;;;;;;;60.72;15.45;;;24.60;88.10;;;;;;5010880;28;20022;-73
2021/07/14 10:31:10;;;;;;;16.35;7.65;;;24.60;88.00;;;;;;5011040;28;20057;-72
2021/07/14 10:33:38;;;;;;;58.45;15.75;;;24.60;87.60;;;;;;5013064;28;20109;-72
2021/07/14 10:36:07;;;;;;;16.48;7.60;;;24.70;87.80;;;;;;5012509;28;20034;-71
2021/07/14 10:38:36;;;;;;;23.25;8.65;;;24.70;87.80;;;;;;5013118;28;20037;-72
2021/07/14 10:41:01;;;;;;;15.60;8.15;;;24.70;88.20;;;;;;5015418;28;20382;-68
2021/07/14 10:43:30;;;;;;;25.10;10.27;;;24.70;87.90;;;;;;5016582;28;20155;-68
2021/07/14 10:45:56;;;;;;;39.85;11.88;;;24.70;88.00;;;;;;5023705;28;20044;-68
2021/07/14 10:48:24;;;;;;;17.92;7.32;;;24.80;88.20;;;;;;5018029;28;20034;-68
2021/07/14 10:50:52;;;;;;;17.80;7.10;;;24.80;87.50;;;;;;5017907;28;20474;-68
2021/07/14 10:53:18;;;;;;;18.83;6.93;;;24.80;87.30;;;;;;5016910;28;20124;-68
2021/07/14 10:55:48;;;;;;;18.45;7.07;;;24.90;87.10;;;;;;5017067;28;20026;-68
2021/07/14 10:58:22;;;;;;;18.65;8.43;;;24.90;87.20;;;;;;5014477;28;20486;-68
2021/07/14 11:00:48;;;;;;;17.08;7.32;;;24.90;87.20;;;;;;5018078;28;20033;-68
2021/07/14 11:03:40;;;;;;;17.40;8.40;;;25.00;87.50;;;;;;5014273;28;20377;-69
2021/07/14 11:06:09;;;;;;;18.25;7.05;;;25.00;88.40;;;;;;5017085;28;20061;-69
2021/07/14 11:08:38;;;;;;;17.90;7.45;;;25.00;87.20;;;;;;5027963;28;20397;-69
2021/07/14 11:11:04;;;;;;;18.05;7.05;;;25.00;87.60;;;;;;5019176;28;20029;-69
2021/07/14 11:13:33;;;;;;;16.75;7.53;;;25.00;87.50;;;;;;5014400;28;20449;-69
2021/07/14 11:16:25;;;;;;;18.77;8.48;;;25.10;87.10;;;;;;5013638;28;20084;-68
2021/07/14 11:19:11;;;;;;;17.05;6.38;;;25.10;87.40;;;;;;5016961;28;20075;-69
2021/07/14 11:22:00;;;;;;;15.15;7.22;;;25.20;87.10;;;;;;5020399;28;20022;-70
2021/07/14 11:24:46;;;;;;;23.38;7.80;;;25.20;86.80;;;;;;5015627;28;20101;-69
2021/07/14 11:27:27;;;;;;;16.05;6.45;;;25.20;86.80;;;;;;5019227;28;20523;-69
2021/07/14 11:30:03;;;;;;;15.98;6.90;;;25.20;86.90;;;;;;5019972;28;20036;-70
2021/07/14 11:32:34;;;;;;;16.52;7.63;;;25.20;86.90;;;;;;5016326;28;20037;-69
2021/07/14 11:35:37;;;;;;;12.63;7.00;;;25.30;87.00;;;;;;5017438;28;20033;-69
2021/07/14 11:38:04;;;;;;;16.42;6.72;;;25.30;87.00;;;;;;5018123;28;20037;-70
2021/07/14 11:40:38;;;;;;;22.15;6.97;;;25.30;86.90;;;;;;5024874;28;20496;-69
2021/07/14 11:43:13;;;;;;;15.80;8.32;;;25.40;86.80;;;;;;5019234;28;20021;-69
2021/07/14 11:45:41;;;;;;;22.52;8.68;;;25.40;86.80;;;;;;5017904;28;20032;-69
2021/07/14 11:48:10;;;;;;;16.42;7.50;;;25.40;86.50;;;;;;5020319;28;20132;-69
2021/07/14 11:50:54;;;;;;;13.32;6.78;;;25.40;86.60;;;;;;5020297;28;20113;-69
2021/07/14 11:53:32;;;;;;;18.33;7.65;;;25.40;86.60;;;;;;5014140;28;20030;-69
2021/07/14 11:56:11;;;;;;;14.93;8.70;;;25.50;86.40;;;;;;5022203;28;20047;-69
2021/07/14 11:58:43;;;;;;;18.00;8.75;;;25.60;86.50;;;;;;5026421;28;20033;-69
2021/07/14 12:01:20;;;;;;;16.38;7.72;;;25.50;86.00;;;;;;5025573;28;20478;-69
2021/07/14 12:06:39;;;;;;;10.65;6.60;;;25.50;86.40;;;;;;5021856;28;20038;-69
2021/07/14 12:09:24;;;;;;;37.53;7.50;;;25.60;86.40;;;;;;5020223;28;20075;-69
2021/07/14 12:12:06;;;;;;;19.38;7.00;;;25.60;86.80;;;;;;5021319;28;20072;-69
2021/07/14 12:14:38;;;;;;;18.05;7.07;;;25.60;86.60;;;;;;5024496;28;20032;-70
2021/07/14 12:17:06;;;;;;;17.20;6.72;;;25.60;86.30;;;;;;5023165;28;20038;-69
2021/07/14 12:19:35;;;;;;;11.43;6.40;;;25.60;86.20;;;;;;5024332;28;20044;-69
2021/07/14 12:22:11;;;;;;;17.50;6.75;;;25.70;86.30;;;;;;5030362;28;20444;-69
2021/07/14 12:24:48;;;;;;;13.75;5.60;;;25.70;86.10;;;;;;5028304;28;20035;-69
2021/07/14 12:27:26;;;;;;;18.63;6.85;;;25.80;86.30;;;;;;5021738;28;20088;-69
2021/07/14 12:30:02;;;;;;;11.75;5.40;;;25.80;87.00;;;;;;5020235;28;20389;-69
2021/07/14 12:32:54;;;;;;;13.75;5.80;;;25.80;86.50;;;;;;5017655;28;20485;-69
2021/07/14 12:35:24;;;;;;;30.45;7.78;;;25.90;86.40;;;;;;5014624;28;20112;-69
2021/07/14 12:37:51;;;;;;;14.30;6.60;;;25.90;86.40;;;;;;5022169;28;20524;-69
2021/07/14 12:40:25;;;;;;;11.40;5.93;;;26.00;86.20;;;;;;5009093;28;20025;-69
2021/07/14 12:42:53;;;;;;;14.13;7.43;;;26.00;85.90;;;;;;5012675;28;20034;-69
2021/07/14 12:45:33;;;;;;;11.40;6.07;;;26.00;85.80;;;;;;5022497;28;20029;-69
2021/07/14 12:48:07;;;;;;;12.52;7.45;;;26.00;85.50;;;;;;5020139;28;20046;-69
2021/07/14 12:50:35;;;;;;;14.10;6.70;;;26.00;85.60;;;;;;5017484;28;20482;-69